createdAt,value
2022-09-16T00:00:20.681Z,40.30
2022-09-16T00:01:20.746Z,49.75
2022-09-16T00:02:20.695Z,58.84
2022-09-16T00:03:20.660Z,52.20
2022-09-16T00:04:20.650Z,47.62
2022-09-16T00:05:20.641Z,46.61
2022-09-16T00:06:20.645Z,51.63
2022-09-16T00:07:20.623Z,48.18
2022-09-16T00:08:20.660Z,57.94
2022-09-16T00:09:20.610Z,45.30
2022-09-16T00:10:20.600Z,57.91
2022-09-16T00:11:20.588Z,48.47
2022-09-16T00:12:21.593Z,47.82
2022-09-16T00:13:20.573Z,42.96
2022-09-16T00:14:20.564Z,58.00
2022-09-16T00:15:20.563Z,48.28
2022-09-16T00:16:20.629Z,54.99
2022-09-16T00:17:20.549Z,48.22
2022-09-16T00:18:20.604Z,50.68
2022-09-16T00:19:20.523Z,59.43
2022-09-16T00:20:20.520Z,54.99
2022-09-16T00:21:20.511Z,45.56
2022-09-16T00:22:20.511Z,59.52
2022-09-16T00:23:20.514Z,47.32
2022-09-16T00:24:20.493Z,43.16
2022-09-16T00:25:20.491Z,49.97
2022-09-16T00:26:20.488Z,40.14
2022-09-16T00:27:20.469Z,48.61
2022-09-16T00:28:20.482Z,44.88
2022-09-16T00:29:20.451Z,53.68
2022-09-16T00:32:20.259Z,56.98
2022-09-16T00:33:20.245Z,48.61
2022-09-16T00:34:20.232Z,50.82
2022-09-16T00:35:20.231Z,53.22
2022-09-16T00:36:20.218Z,47.29
2022-09-16T00:37:20.209Z,46.38
2022-09-16T00:38:20.224Z,57.60
2022-09-16T00:39:20.190Z,56.04
2022-09-16T00:40:20.252Z,52.30
2022-09-16T00:41:20.184Z,42.76
2022-09-16T00:42:21.268Z,44.70
2022-09-16T00:43:21.257Z,57.65
2022-09-16T00:44:21.250Z,51.72
2022-09-16T00:45:21.240Z,39.56
2022-09-16T00:46:21.312Z,43.73
2022-09-16T00:47:21.237Z,50.44
2022-09-16T00:48:21.249Z,49.55
2022-09-16T00:49:21.210Z,46.19
2022-09-16T00:50:21.210Z,39.53
2022-09-16T00:51:21.216Z,47.05
2022-09-16T00:52:21.189Z,46.58
2022-09-16T00:53:21.184Z,47.38
2022-09-16T00:54:21.173Z,49.41
2022-09-16T00:55:21.161Z,48.49
2022-09-16T00:56:21.152Z,47.78
2022-09-16T00:57:21.151Z,45.52
2022-09-16T00:58:21.137Z,60.29
2022-09-16T00:59:21.120Z,56.87
2022-09-16T01:00:21.127Z,47.38
2022-09-16T01:01:21.198Z,56.27
2022-09-16T01:02:21.190Z,56.53
2022-09-16T01:03:21.093Z,54.93
2022-09-16T01:04:21.097Z,51.35
2022-09-16T01:05:21.092Z,54.62
2022-09-16T01:06:21.107Z,55.98
2022-09-16T01:07:21.070Z,47.38
2022-09-16T01:08:21.090Z,54.54
2022-09-16T01:09:21.051Z,51.89
2022-09-16T01:10:21.058Z,46.93
2022-09-16T01:11:21.036Z,49.53
2022-09-16T01:12:21.036Z,45.15
2022-09-16T01:13:21.015Z,51.04
2022-09-16T01:14:21.013Z,57.73
2022-09-16T01:15:21.008Z,52.47
2022-09-16T01:16:21.024Z,49.31
2022-09-16T01:17:21.009Z,51.71
2022-09-16T01:18:20.975Z,50.21
2022-09-16T01:19:20.983Z,52.74
2022-09-16T01:20:21.550Z,51.75
2022-09-16T01:21:20.949Z,52.63
2022-09-16T01:22:20.942Z,48.76
2022-09-16T01:23:20.947Z,58.45
2022-09-16T01:24:20.923Z,43.09
2022-09-16T01:25:20.913Z,47.74
2022-09-16T01:26:20.922Z,50.62
2022-09-16T01:27:20.901Z,59.25
2022-09-16T01:28:20.899Z,53.96
2022-09-16T01:29:20.878Z,40.51
2022-09-16T01:30:20.884Z,53.49
2022-09-16T01:31:20.890Z,59.86
2022-09-16T01:32:20.858Z,59.87
2022-09-16T01:33:20.855Z,54.36
2022-09-16T01:34:20.847Z,51.30
2022-09-16T01:35:20.839Z,49.88
2022-09-16T01:36:20.825Z,48.26
2022-09-16T01:37:20.822Z,50.55
2022-09-16T01:38:20.812Z,57.72
2022-09-16T01:39:20.809Z,47.98
2022-09-16T01:40:20.832Z,59.01
2022-09-16T01:41:20.777Z,51.01
2022-09-16T01:42:20.777Z,49.34
2022-09-16T01:43:20.758Z,48.28
2022-09-16T01:44:20.761Z,50.28
2022-09-16T01:45:20.753Z,48.19
2022-09-16T01:46:20.762Z,44.03
2022-09-16T01:47:21.734Z,61.06
2022-09-16T01:48:20.727Z,53.20
2022-09-16T01:49:20.748Z,47.27
2022-09-16T01:50:20.701Z,50.78
2022-09-16T01:51:20.708Z,49.80
2022-09-16T01:52:20.689Z,53.46
2022-09-16T01:53:20.687Z,45.58
2022-09-16T01:54:20.691Z,49.02
2022-09-16T01:55:20.678Z,42.71
2022-09-16T01:56:20.672Z,59.43
2022-09-16T01:57:20.653Z,44.26
2022-09-16T01:58:20.646Z,42.17
2022-09-16T01:59:20.647Z,49.65
2022-09-16T02:00:20.631Z,52.64
2022-09-16T02:01:20.671Z,52.31
2022-09-16T02:02:20.705Z,52.95
2022-09-16T02:03:22.522Z,59.53
2022-09-16T02:04:20.948Z,50.53
2022-09-16T02:05:20.596Z,50.31
2022-09-16T02:06:20.589Z,41.77
2022-09-16T02:07:20.581Z,46.22
2022-09-16T02:08:20.569Z,57.15
2022-09-16T02:09:20.563Z,47.42
2022-09-16T02:10:20.563Z,54.93
2022-09-16T02:11:20.540Z,56.46
2022-09-16T02:12:20.535Z,57.32
2022-09-16T02:13:20.525Z,51.93
2022-09-16T02:14:20.518Z,61.50
2022-09-16T02:15:21.514Z,47.97
2022-09-16T02:16:20.651Z,46.61
2022-09-16T02:17:20.498Z,50.47
2022-09-16T02:18:20.484Z,54.01
2022-09-16T02:19:20.480Z,44.03
2022-09-16T02:20:20.469Z,40.75
2022-09-16T02:21:20.468Z,47.53
2022-09-16T02:22:20.498Z,55.88
2022-09-16T02:23:20.448Z,57.28
2022-09-16T02:24:20.434Z,47.79
2022-09-16T02:25:20.439Z,40.13
2022-09-16T02:26:20.449Z,47.80
2022-09-16T02:27:20.420Z,42.59
2022-09-16T02:28:20.416Z,54.63
2022-09-16T02:29:20.399Z,41.65
2022-09-16T02:30:20.403Z,51.53
2022-09-16T02:31:20.449Z,57.54
2022-09-16T02:32:20.391Z,56.54
2022-09-16T02:33:20.377Z,54.40
2022-09-16T02:34:20.370Z,47.35
2022-09-16T02:35:20.370Z,56.28
2022-09-16T02:36:20.346Z,57.59
2022-09-16T02:37:20.345Z,54.26
2022-09-16T02:38:20.363Z,50.77
2022-09-16T02:39:20.321Z,50.16
2022-09-16T02:40:20.385Z,51.63
2022-09-16T02:41:20.308Z,51.44
2022-09-16T02:42:20.317Z,48.37
2022-09-16T02:43:20.278Z,59.81
2022-09-16T02:44:20.270Z,52.30
2022-09-16T02:45:20.275Z,55.16
2022-09-16T02:46:20.343Z,53.58
2022-09-16T02:47:20.243Z,57.13
2022-09-16T02:48:20.244Z,59.91
2022-09-16T02:49:20.234Z,61.06
2022-09-16T02:50:20.236Z,54.91
2022-09-16T02:51:20.215Z,57.90
2022-09-16T02:52:20.200Z,55.86
2022-09-16T02:53:20.198Z,53.80
2022-09-16T02:54:20.194Z,55.57
2022-09-16T02:55:20.186Z,59.62
2022-09-16T02:56:20.177Z,55.87
2022-09-16T02:57:20.181Z,57.76
2022-09-16T02:58:20.161Z,55.79
2022-09-16T02:59:20.147Z,63.42
2022-09-16T03:00:20.142Z,56.18
2022-09-16T03:01:20.187Z,52.08
2022-09-16T03:02:20.195Z,59.63
2022-09-16T03:03:20.112Z,56.05
2022-09-16T03:04:20.112Z,54.87
2022-09-16T03:05:20.108Z,61.75
2022-09-16T03:06:20.104Z,60.69
2022-09-16T03:07:20.095Z,57.72
2022-09-16T03:08:20.073Z,53.72
2022-09-16T03:09:20.081Z,56.77
2022-09-16T03:10:20.056Z,58.56
2022-09-16T03:11:20.047Z,58.98
2022-09-16T03:12:20.038Z,64.68
2022-09-16T03:13:20.031Z,57.16
2022-09-16T03:14:20.035Z,59.53
2022-09-16T03:15:20.010Z,53.41
2022-09-16T03:16:20.081Z,55.47
2022-09-16T03:17:20.021Z,58.43
2022-09-16T03:18:19.997Z,59.41
2022-09-16T03:19:19.987Z,58.28
2022-09-16T03:20:19.973Z,61.96
2022-09-16T03:21:19.982Z,57.19
2022-09-16T03:22:19.964Z,56.27
2022-09-16T03:23:20.952Z,56.34
2022-09-16T03:24:19.941Z,60.77
2022-09-16T03:25:19.935Z,62.34
2022-09-16T03:26:19.922Z,57.10
2022-09-16T03:27:19.987Z,62.78
2022-09-16T03:28:19.908Z,60.99
2022-09-16T03:29:19.899Z,62.07
2022-09-16T03:30:19.895Z,58.79
2022-09-16T03:31:19.955Z,59.27
2022-09-16T03:32:19.888Z,60.77
2022-09-16T03:33:19.871Z,63.52
2022-09-16T03:34:19.863Z,64.10
2022-09-16T03:35:19.856Z,63.21
2022-09-16T03:36:19.843Z,65.20
2022-09-16T03:37:19.841Z,61.06
2022-09-16T03:38:19.829Z,64.14
2022-09-16T03:39:19.814Z,63.21
2022-09-16T03:40:19.932Z,55.41
2022-09-16T03:41:19.817Z,62.48
2022-09-16T03:42:19.790Z,62.61
2022-09-16T03:43:20.807Z,60.57
2022-09-16T03:44:19.787Z,59.35
2022-09-16T03:45:19.767Z,61.71
2022-09-16T03:46:19.794Z,60.52
2022-09-16T03:47:19.753Z,61.29
2022-09-16T03:48:19.768Z,58.81
2022-09-16T03:49:19.767Z,56.21
2022-09-16T03:50:19.731Z,61.30
2022-09-16T03:51:19.721Z,63.86
2022-09-16T03:52:19.713Z,62.78
2022-09-16T03:53:19.717Z,60.19
2022-09-16T03:54:19.741Z,59.40
2022-09-16T03:55:19.683Z,61.67
2022-09-16T03:56:19.688Z,60.02
2022-09-16T03:57:20.682Z,63.01
2022-09-16T03:58:19.676Z,64.30
2022-09-16T03:59:19.662Z,63.23
2022-09-16T04:00:19.663Z,63.32
2022-09-16T04:01:19.669Z,62.10
2022-09-16T04:02:19.677Z,63.34
2022-09-16T04:03:20.619Z,62.25
2022-09-16T04:04:19.623Z,63.25
2022-09-16T04:05:19.619Z,60.96
2022-09-16T04:06:19.600Z,62.48
2022-09-16T04:07:19.596Z,59.01
2022-09-16T04:08:19.607Z,59.92
2022-09-16T04:09:19.577Z,60.41
2022-09-16T04:10:19.567Z,57.94
2022-09-16T04:11:20.553Z,60.42
2022-09-16T04:12:19.545Z,61.94
2022-09-16T04:13:19.534Z,61.77
2022-09-16T04:14:19.534Z,62.26
2022-09-16T04:15:19.539Z,61.94
2022-09-16T04:16:21.104Z,63.53
2022-09-16T04:17:19.513Z,60.78
2022-09-16T04:18:21.050Z,61.88
2022-09-16T04:19:19.490Z,63.54
2022-09-16T04:20:19.492Z,67.23
2022-09-16T04:21:19.475Z,62.69
2022-09-16T04:22:19.483Z,65.58
2022-09-16T04:23:19.456Z,63.50
2022-09-16T04:24:19.455Z,63.43
2022-09-16T04:25:19.446Z,62.08
2022-09-16T04:26:19.434Z,64.75
2022-09-16T04:27:19.436Z,64.35
2022-09-16T04:28:19.972Z,60.20
2022-09-16T04:29:19.414Z,62.03
2022-09-16T04:30:19.399Z,62.51
2022-09-16T04:31:19.428Z,63.69
2022-09-16T04:32:19.388Z,65.32
2022-09-16T04:33:19.374Z,62.76
2022-09-16T04:34:19.371Z,65.34
2022-09-16T04:35:19.371Z,64.43
2022-09-16T04:36:19.403Z,64.35
2022-09-16T04:37:19.348Z,63.67
2022-09-16T04:38:19.970Z,65.57
2022-09-16T04:39:19.336Z,61.15
2022-09-16T04:40:19.338Z,63.04
2022-09-16T04:41:19.319Z,61.28
2022-09-16T04:42:19.305Z,66.71
2022-09-16T04:43:19.303Z,62.62
2022-09-16T04:44:20.049Z,63.45
2022-09-16T04:45:19.277Z,60.10
2022-09-16T04:46:19.303Z,62.50
2022-09-16T04:47:19.262Z,64.07
2022-09-16T04:48:19.291Z,61.80
2022-09-16T04:49:19.255Z,64.08
2022-09-16T04:50:19.250Z,65.25
2022-09-16T04:51:19.245Z,65.75
2022-09-16T04:52:19.226Z,65.14
2022-09-16T04:53:19.217Z,65.01
2022-09-16T04:54:20.056Z,67.14
2022-09-16T04:55:19.194Z,63.93
2022-09-16T04:56:19.196Z,62.45
2022-09-16T04:57:19.188Z,64.33
2022-09-16T04:58:19.172Z,61.35
2022-09-16T04:59:19.167Z,63.03
2022-09-16T05:00:19.162Z,65.47
2022-09-16T05:01:19.213Z,64.22
2022-09-16T05:02:19.145Z,66.09
2022-09-16T05:03:19.226Z,66.39
2022-09-16T05:04:19.153Z,63.41
2022-09-16T05:05:19.133Z,64.63
2022-09-16T05:06:20.812Z,64.45
2022-09-16T05:07:20.105Z,65.38
2022-09-16T05:08:19.102Z,64.95
2022-09-16T05:09:19.097Z,63.23
2022-09-16T05:10:19.091Z,64.37
2022-09-16T05:11:19.066Z,64.78
2022-09-16T05:12:19.059Z,63.87
2022-09-16T05:13:20.076Z,63.79
2022-09-16T05:14:19.045Z,64.38
2022-09-16T05:15:19.041Z,66.21
2022-09-16T05:16:19.143Z,66.01
2022-09-16T05:17:39.421Z,63.77
2022-09-16T05:18:21.019Z,64.92
2022-09-16T05:19:19.004Z,65.25
2022-09-16T05:20:19.022Z,66.68
2022-09-16T05:21:18.982Z,65.76
2022-09-16T05:22:18.975Z,66.76
2022-09-16T05:23:18.973Z,69.34
2022-09-16T05:24:18.969Z,69.28
2022-09-16T05:25:18.949Z,64.85
2022-09-16T05:26:19.043Z,63.44
2022-09-16T05:27:18.978Z,67.10
2022-09-16T05:28:18.936Z,63.03
2022-09-16T05:29:18.947Z,68.33
2022-09-16T05:30:21.675Z,68.83
2022-09-16T05:31:21.048Z,69.45
2022-09-16T05:32:18.896Z,66.65
2022-09-16T05:33:18.886Z,67.42
2022-09-16T05:34:18.910Z,65.00
2022-09-16T05:35:18.868Z,66.75
2022-09-16T05:36:19.561Z,67.52
2022-09-16T05:37:18.852Z,67.31
2022-09-16T05:38:18.852Z,67.89
2022-09-16T05:39:24.115Z,68.32
2022-09-16T05:40:20.901Z,65.53
2022-09-16T05:41:18.820Z,67.71
2022-09-16T05:42:18.918Z,66.35
2022-09-16T05:43:18.806Z,65.93
2022-09-16T05:44:18.841Z,65.64
2022-09-16T05:45:24.097Z,69.38
2022-09-16T05:46:20.852Z,64.50
2022-09-16T05:47:18.776Z,64.29
2022-09-16T05:48:18.763Z,68.01
2022-09-16T05:49:18.793Z,64.62
2022-09-16T05:50:18.766Z,64.26
2022-09-16T05:51:20.634Z,63.70
2022-09-16T05:52:19.746Z,67.09
2022-09-16T05:53:18.736Z,67.32
2022-09-16T05:54:18.897Z,67.95
2022-09-16T05:55:18.718Z,65.98
2022-09-16T05:56:18.707Z,65.84
2022-09-16T05:57:18.716Z,64.83
2022-09-16T05:58:18.794Z,67.10
2022-09-16T05:59:18.686Z,66.52
2022-09-16T06:00:18.678Z,67.28
2022-09-16T06:01:18.765Z,66.61
2022-09-16T06:02:18.697Z,65.50
2022-09-16T06:03:18.665Z,67.37
2022-09-16T06:04:18.644Z,63.42
2022-09-16T06:05:18.642Z,64.22
2022-09-16T06:06:18.639Z,62.98
2022-09-16T06:07:18.622Z,63.52
2022-09-16T06:08:18.622Z,65.76
2022-09-16T06:09:18.612Z,64.10
2022-09-16T06:10:18.611Z,63.94
2022-09-16T06:11:18.599Z,65.82
2022-09-16T06:12:18.591Z,64.72
2022-09-16T06:13:18.577Z,66.13
2022-09-16T06:14:18.679Z,63.85
2022-09-16T06:15:18.573Z,64.40
2022-09-16T06:16:18.596Z,65.38
2022-09-16T06:17:19.539Z,65.71
2022-09-16T06:18:18.537Z,64.80
2022-09-16T06:19:18.528Z,66.98
2022-09-16T06:20:18.522Z,68.48
2022-09-16T06:21:18.518Z,62.94
2022-09-16T06:22:18.506Z,64.54
2022-09-16T06:23:18.491Z,65.45
2022-09-16T06:24:18.497Z,62.79
2022-09-16T06:25:18.473Z,64.96
2022-09-16T06:26:18.472Z,65.52
2022-09-16T06:27:18.463Z,64.79
2022-09-16T06:28:18.456Z,64.76
2022-09-16T06:29:18.450Z,65.87
2022-09-16T06:30:18.530Z,65.02
2022-09-16T06:31:18.472Z,63.67
2022-09-16T06:32:18.436Z,65.24
2022-09-16T06:33:18.415Z,65.36
2022-09-16T06:34:18.622Z,65.51
2022-09-16T06:35:18.392Z,65.15
2022-09-16T06:36:18.384Z,66.75
2022-09-16T06:37:18.382Z,64.25
2022-09-16T06:38:18.402Z,64.11
2022-09-16T06:39:18.362Z,66.73
2022-09-16T06:40:18.426Z,64.60
2022-09-16T06:41:18.350Z,64.41
2022-09-16T06:42:18.351Z,64.22
2022-09-16T06:43:18.339Z,65.00
2022-09-16T06:44:18.329Z,65.85
2022-09-16T06:45:18.377Z,64.41
2022-09-16T06:46:18.589Z,62.26
2022-09-16T06:47:18.308Z,65.50
2022-09-16T06:48:19.209Z,63.84
2022-09-16T06:49:18.290Z,63.71
2022-09-16T06:50:18.282Z,64.65
2022-09-16T06:51:18.295Z,67.05
2022-09-16T06:52:18.300Z,68.29
2022-09-16T06:53:18.256Z,63.50
2022-09-16T06:54:18.247Z,63.99
2022-09-16T06:55:18.254Z,65.39
2022-09-16T06:56:18.232Z,65.65
2022-09-16T06:57:18.239Z,66.15
2022-09-16T06:58:18.213Z,64.22
2022-09-16T06:59:18.222Z,63.03
2022-09-16T07:00:18.210Z,65.58
2022-09-16T07:01:18.237Z,67.29
2022-09-16T07:02:19.352Z,65.88
2022-09-16T07:03:18.173Z,65.62
2022-09-16T07:04:18.170Z,65.30
2022-09-16T07:05:18.172Z,66.10
2022-09-16T07:06:18.155Z,63.92
2022-09-16T07:07:18.147Z,64.09
2022-09-16T07:08:18.146Z,63.58
2022-09-16T07:09:18.125Z,63.68
2022-09-16T07:10:18.142Z,65.48
2022-09-16T07:11:18.122Z,64.45
2022-09-16T07:12:19.704Z,64.12
2022-09-16T07:13:19.116Z,64.76
2022-09-16T07:14:19.767Z,67.40
2022-09-16T07:15:18.172Z,66.98
2022-09-16T07:16:18.071Z,66.56
2022-09-16T07:17:18.074Z,64.06
2022-09-16T07:18:18.164Z,64.51
2022-09-16T07:19:18.060Z,64.69
2022-09-16T07:20:18.052Z,65.19
2022-09-16T07:21:18.036Z,68.06
2022-09-16T07:22:18.074Z,66.10
2022-09-16T07:23:18.030Z,66.50
2022-09-16T07:24:18.025Z,63.96
2022-09-16T07:25:18.013Z,65.62
2022-09-16T07:26:18.005Z,63.64
2022-09-16T07:27:17.989Z,63.91
2022-09-16T07:28:18.004Z,64.42
2022-09-16T07:29:17.988Z,63.72
2022-09-16T07:30:17.970Z,63.96
2022-09-16T07:31:18.060Z,63.07
2022-09-16T07:32:17.966Z,63.37
2022-09-16T07:33:18.000Z,62.71
2022-09-16T07:34:18.050Z,62.11
2022-09-16T07:35:17.934Z,63.33
2022-09-16T07:36:17.944Z,67.33
2022-09-16T07:37:17.925Z,66.35
2022-09-16T07:38:17.903Z,66.40
2022-09-16T07:39:17.934Z,62.51
2022-09-16T07:40:17.907Z,61.09
2022-09-16T07:41:17.894Z,64.38
2022-09-16T07:42:17.880Z,62.46
2022-09-16T07:43:17.875Z,62.87
2022-09-16T07:44:17.876Z,62.88
2022-09-16T07:45:17.852Z,63.57
2022-09-16T07:46:17.887Z,62.43
2022-09-16T07:47:22.112Z,62.66
2022-09-16T07:48:18.838Z,63.55
2022-09-16T07:49:17.817Z,63.95
2022-09-16T07:50:17.940Z,64.38
2022-09-16T07:51:17.808Z,63.47
2022-09-16T07:52:17.809Z,64.92
2022-09-16T07:53:17.794Z,64.88
2022-09-16T07:54:17.885Z,64.32
2022-09-16T07:55:17.777Z,65.86
2022-09-16T07:56:17.765Z,64.27
2022-09-16T07:57:17.800Z,66.42
2022-09-16T07:58:17.753Z,61.46
2022-09-16T07:59:19.062Z,66.07
2022-09-16T08:00:17.735Z,64.99
2022-09-16T08:01:17.769Z,64.14
2022-09-16T08:02:17.877Z,64.36
2022-09-16T08:03:17.712Z,64.72
2022-09-16T08:04:17.703Z,62.57
2022-09-16T08:05:17.712Z,66.25
2022-09-16T08:06:17.791Z,64.65
2022-09-16T08:07:17.695Z,63.17
2022-09-16T08:08:17.678Z,62.98
2022-09-16T08:10:19.671Z,63.32
2022-09-16T08:11:17.666Z,62.73
2022-09-16T08:12:17.666Z,64.00
2022-09-16T08:13:17.685Z,64.55
2022-09-16T08:14:50.585Z,64.65
2022-09-16T08:16:17.733Z,63.16
2022-09-16T08:17:17.609Z,63.58
2022-09-16T08:18:19.583Z,63.97
2022-09-16T08:19:17.593Z,65.28
2022-09-16T08:20:17.586Z,65.61
2022-09-16T08:21:17.621Z,67.66
2022-09-16T08:22:17.671Z,63.27
2022-09-16T08:23:17.567Z,63.35
2022-09-16T08:24:17.553Z,66.18
2022-09-16T08:25:17.545Z,66.46
2022-09-16T08:26:17.542Z,64.70
2022-09-16T08:27:17.597Z,64.65
2022-09-16T08:28:17.525Z,65.96
2022-09-16T08:29:18.585Z,65.50
2022-09-16T08:30:17.508Z,66.01
2022-09-16T08:31:18.150Z,65.65
2022-09-16T08:32:17.495Z,65.04
2022-09-16T08:33:17.490Z,64.41
2022-09-16T08:34:17.471Z,63.89
2022-09-16T08:35:17.469Z,64.05
2022-09-16T08:36:17.460Z,66.00
2022-09-16T08:37:17.438Z,66.23
2022-09-16T08:38:18.544Z,65.73
2022-09-16T08:39:17.443Z,65.89
2022-09-16T08:40:17.528Z,63.85
2022-09-16T08:41:17.445Z,64.08
2022-09-16T08:42:19.813Z,65.94
2022-09-16T08:43:17.428Z,62.79
2022-09-16T08:44:17.397Z,65.76
2022-09-16T08:45:17.387Z,65.46
2022-09-16T08:46:17.453Z,64.23
2022-09-16T08:47:17.422Z,63.92
2022-09-16T08:48:17.366Z,65.58
2022-09-16T08:49:17.368Z,64.92
2022-09-16T08:50:17.353Z,64.99
2022-09-16T08:51:17.345Z,64.96
2022-09-16T08:52:17.341Z,64.80
2022-09-16T08:53:17.336Z,67.29
2022-09-16T08:54:17.438Z,65.97
2022-09-16T08:55:17.314Z,64.13
2022-09-16T08:56:17.306Z,66.92
2022-09-16T08:57:17.308Z,66.94
2022-09-16T08:58:17.288Z,66.19
2022-09-16T08:59:17.283Z,65.88
2022-09-16T09:00:17.273Z,66.61
2022-09-16T09:01:17.309Z,65.38
2022-09-16T09:02:17.652Z,63.05
2022-09-16T09:03:17.260Z,64.84
2022-09-16T09:04:17.237Z,64.44
2022-09-16T09:05:17.232Z,61.74
2022-09-16T09:06:17.230Z,65.49
2022-09-16T09:07:17.215Z,62.09
2022-09-16T09:08:17.213Z,63.78
2022-09-16T09:09:17.227Z,63.55
2022-09-16T09:10:17.309Z,62.75
2022-09-16T09:11:17.184Z,64.36
2022-09-16T09:12:18.256Z,62.26
2022-09-16T09:13:17.960Z,61.90
2022-09-16T09:14:17.171Z,64.35
2022-09-16T09:15:17.148Z,64.40
2022-09-16T09:16:17.246Z,63.94
2022-09-16T09:17:17.135Z,65.22
2022-09-16T09:18:17.129Z,64.66
2022-09-16T09:19:17.134Z,67.11
2022-09-16T09:20:17.679Z,66.46
2022-09-16T09:21:17.606Z,66.18
2022-09-16T09:22:17.088Z,67.08
2022-09-16T09:23:17.079Z,64.47
2022-09-16T09:24:17.080Z,63.69
2022-09-16T09:25:17.078Z,66.81
2022-09-16T09:26:17.168Z,64.92
2022-09-16T09:27:17.081Z,63.78
2022-09-16T09:28:18.777Z,64.78
2022-09-16T09:29:17.032Z,65.66
2022-09-16T09:30:17.147Z,64.11
2022-09-16T09:31:17.079Z,65.12
2022-09-16T09:32:16.998Z,64.83
2022-09-16T09:33:44.250Z,66.12
2022-09-16T09:34:18.991Z,64.53
2022-09-16T09:35:16.992Z,62.87
2022-09-16T09:36:16.973Z,66.78
2022-09-16T09:37:16.986Z,62.30
2022-09-16T09:38:16.963Z,63.99
2022-09-16T09:39:16.949Z,63.65
2022-09-16T09:40:17.003Z,63.59
2022-09-16T09:43:04.807Z,64.70
2022-09-16T09:44:04.798Z,63.38
2022-09-16T09:45:04.795Z,61.81
2022-09-16T09:46:05.691Z,63.24
2022-09-16T09:47:04.790Z,63.43
2022-09-16T09:48:04.775Z,62.62
2022-09-16T09:49:05.852Z,63.41
2022-09-16T09:50:05.867Z,64.78
2022-09-16T09:51:05.840Z,64.82
2022-09-16T09:52:05.837Z,62.51
2022-09-16T09:53:05.829Z,64.96
2022-09-16T09:54:05.814Z,63.58
2022-09-16T09:55:05.804Z,64.19
2022-09-16T09:56:05.796Z,63.38
2022-09-16T09:57:05.789Z,66.35
2022-09-16T09:58:05.894Z,63.18
2022-09-16T09:59:05.773Z,69.33
2022-09-16T10:00:05.764Z,64.34
2022-09-16T10:01:05.847Z,64.11
2022-09-16T10:02:05.809Z,64.53
2022-09-16T10:03:05.746Z,66.32
2022-09-16T10:04:05.730Z,71.09
2022-09-16T10:05:05.724Z,69.34
2022-09-16T10:06:05.743Z,68.13
2022-09-16T10:07:05.728Z,65.71
2022-09-16T10:08:05.708Z,66.69
2022-09-16T10:09:05.695Z,67.53
2022-09-16T10:10:05.693Z,67.06
2022-09-16T10:11:05.677Z,69.56
2022-09-16T10:12:05.670Z,65.88
2022-09-16T10:13:05.664Z,68.63
2022-09-16T10:14:05.768Z,65.14
2022-09-16T10:15:05.642Z,65.39
2022-09-16T10:16:05.667Z,68.01
2022-09-16T10:17:05.637Z,67.92
2022-09-16T10:18:05.621Z,67.32
2022-09-16T10:19:05.610Z,68.73
2022-09-16T10:20:05.605Z,68.63
2022-09-16T10:21:05.602Z,67.76
2022-09-16T10:22:05.598Z,68.75
2022-09-16T10:23:06.262Z,68.13
2022-09-16T10:24:05.587Z,67.49
2022-09-16T10:25:05.571Z,66.32
2022-09-16T10:26:06.228Z,68.45
2022-09-16T10:27:05.659Z,68.43
2022-09-16T10:28:05.541Z,67.00
2022-09-16T10:29:05.537Z,67.72
2022-09-16T10:30:05.783Z,68.82
2022-09-16T10:31:05.553Z,70.56
2022-09-16T10:32:05.584Z,67.23
2022-09-16T10:33:05.512Z,67.14
2022-09-16T10:34:05.493Z,68.14
2022-09-16T10:35:05.489Z,66.98
2022-09-16T10:36:05.475Z,67.36
2022-09-16T10:37:06.185Z,65.94
2022-09-16T10:38:05.463Z,67.16
2022-09-16T10:39:05.860Z,68.16
2022-09-16T10:40:05.492Z,65.55
2022-09-16T10:41:05.439Z,68.93
2022-09-16T10:42:05.438Z,67.22
2022-09-16T10:43:05.426Z,65.72
2022-09-16T10:44:05.421Z,67.17
2022-09-16T10:45:05.430Z,66.35
2022-09-16T10:46:05.589Z,68.17
2022-09-16T10:47:05.390Z,65.80
2022-09-16T10:48:07.274Z,65.32
2022-09-16T10:49:05.388Z,66.44
2022-09-16T10:50:05.405Z,67.04
2022-09-16T10:51:05.367Z,68.21
2022-09-16T10:52:05.354Z,66.28
2022-09-16T10:53:05.344Z,65.76
2022-09-16T10:54:06.442Z,64.41
2022-09-16T10:55:05.759Z,67.22
2022-09-16T10:56:05.472Z,65.10
2022-09-16T10:57:05.471Z,68.48
2022-09-16T10:58:05.506Z,66.22
2022-09-16T10:59:05.541Z,66.12
2022-09-16T11:00:05.410Z,65.98
2022-09-16T11:01:05.647Z,65.92
2022-09-16T11:02:05.730Z,65.76
2022-09-16T11:03:05.291Z,69.36
2022-09-16T11:04:05.441Z,66.29
2022-09-16T11:05:05.258Z,67.78
2022-09-16T11:06:05.242Z,66.64
2022-09-16T11:07:05.238Z,68.05
2022-09-16T11:08:05.252Z,65.51
2022-09-16T11:09:05.227Z,63.76
2022-09-16T11:10:05.194Z,66.91
2022-09-16T11:11:11.109Z,66.64
2022-09-16T11:12:10.359Z,65.32
2022-09-16T11:13:05.198Z,67.07
2022-09-16T11:14:05.170Z,64.45
2022-09-16T11:15:05.211Z,66.06
2022-09-16T11:16:05.209Z,68.73
2022-09-16T11:17:05.156Z,66.88
2022-09-16T11:18:05.256Z,69.66
2022-09-16T11:19:05.698Z,67.12
2022-09-16T11:20:05.128Z,69.37
2022-09-16T11:21:05.116Z,68.17
2022-09-16T11:22:05.118Z,69.12
2022-09-16T11:23:05.097Z,69.14
2022-09-16T11:24:05.091Z,69.36
2022-09-16T11:25:09.726Z,65.63
2022-09-16T11:26:05.081Z,66.87
2022-09-16T11:27:05.080Z,67.43
2022-09-16T11:28:05.053Z,65.42
2022-09-16T11:29:06.239Z,64.85
2022-09-16T11:30:05.042Z,66.57
2022-09-16T11:31:05.380Z,64.60
2022-09-16T11:32:05.031Z,65.99
2022-09-16T11:33:05.138Z,66.78
2022-09-16T11:34:05.851Z,66.20
2022-09-16T11:35:05.000Z,65.68
2022-09-16T11:36:04.993Z,65.35
2022-09-16T11:37:05.015Z,64.02
2022-09-16T11:38:05.015Z,65.67
2022-09-16T11:39:04.972Z,65.53
2022-09-16T11:40:04.989Z,64.45
2022-09-16T11:41:04.973Z,65.79
2022-09-16T11:42:04.944Z,63.56
2022-09-16T11:43:04.938Z,66.46
2022-09-16T11:44:04.932Z,66.98
2022-09-16T11:45:04.931Z,66.35
2022-09-16T11:46:04.951Z,65.36
2022-09-16T11:47:04.908Z,63.77
2022-09-16T11:48:04.900Z,64.23
2022-09-16T11:49:04.893Z,64.28
2022-09-16T11:50:05.008Z,64.25
2022-09-16T11:51:04.878Z,65.33
2022-09-16T11:52:04.911Z,64.80
2022-09-16T11:53:06.129Z,64.50
2022-09-16T11:54:05.850Z,64.22
2022-09-16T11:55:04.853Z,67.05
2022-09-16T11:56:04.840Z,67.36
2022-09-16T11:57:04.864Z,65.29
2022-09-16T11:58:04.820Z,63.35
2022-09-16T11:59:04.814Z,65.10
2022-09-16T12:00:04.816Z,62.67
2022-09-16T12:01:04.863Z,64.23
2022-09-16T12:02:04.935Z,64.61
2022-09-16T12:03:04.885Z,67.75
2022-09-16T12:04:04.968Z,65.42
2022-09-16T12:05:04.768Z,66.55
2022-09-16T12:06:06.722Z,64.98
2022-09-16T12:07:04.766Z,64.97
2022-09-16T12:08:04.741Z,64.53
2022-09-16T12:09:06.540Z,64.91
2022-09-16T12:10:04.736Z,63.38
2022-09-16T12:11:04.720Z,65.35
2022-09-16T12:12:04.705Z,66.44
2022-09-16T12:13:04.697Z,62.81
2022-09-16T12:14:06.053Z,64.36
2022-09-16T12:15:06.081Z,67.52
2022-09-16T12:16:05.680Z,63.62
2022-09-16T12:17:04.664Z,65.32
2022-09-16T12:18:04.656Z,64.59
2022-09-16T12:19:04.653Z,64.12
2022-09-16T12:20:04.646Z,64.52
2022-09-16T12:21:06.218Z,68.64
2022-09-16T12:22:04.755Z,65.12
2022-09-16T12:23:04.616Z,65.04
2022-09-16T12:24:04.607Z,63.40
2022-09-16T12:25:04.599Z,65.57
2022-09-16T12:26:04.597Z,64.09
2022-09-16T12:27:04.582Z,64.70
2022-09-16T12:28:04.578Z,65.83
2022-09-16T12:29:04.580Z,66.07
2022-09-16T12:30:04.569Z,65.33
2022-09-16T12:31:04.570Z,65.83
2022-09-16T12:32:04.545Z,64.27
2022-09-16T12:33:04.538Z,63.85
2022-09-16T12:34:04.533Z,63.41
2022-09-16T12:35:04.518Z,62.78
2022-09-16T12:36:04.512Z,65.15
2022-09-16T12:37:04.514Z,64.73
2022-09-16T12:38:04.626Z,66.75
2022-09-16T12:39:04.505Z,63.92
2022-09-16T12:40:04.539Z,66.08
2022-09-16T12:41:04.472Z,65.80
2022-09-16T12:42:04.465Z,63.68
2022-09-16T12:43:04.458Z,65.20
2022-09-16T12:44:17.080Z,63.99
2022-09-16T12:45:06.446Z,65.15
2022-09-16T12:46:04.509Z,65.70
2022-09-16T12:47:04.436Z,64.58
2022-09-16T12:48:04.420Z,64.51
2022-09-16T12:49:04.418Z,64.61
2022-09-16T12:50:05.312Z,62.50
2022-09-16T12:51:04.406Z,64.16
2022-09-16T12:52:04.389Z,66.33
2022-09-16T12:53:04.390Z,64.24
2022-09-16T12:54:04.488Z,64.96
2022-09-16T12:55:08.193Z,62.49
2022-09-16T12:56:05.359Z,63.11
2022-09-16T12:57:04.368Z,65.13
2022-09-16T12:58:04.347Z,66.69